Legend — WDF9316 — position and weather

sailwx.info

Track history (hours):
 
Tides and Currents Weather Stations Pressure Air Temp Water Temp Dewpoint Dewpoint Depression Visibility Wind Speed Wind Dir Waves Ship Positions

Legend

Owner: Crowley Maritime, Seattle, WA. More information available from US FCC via Universal Licensing System and Coast Guard Vessel Documentation Center.

Last reported at 2015-Jul-03 04:33 UTC. Time now 2015-Jul-04 18:57 UTC.
Position N 25°34' W 080°01'.

Length 212 m; draft 11.6 m.

Type: Towing. MMSI: 366709000.

Date/timePositionNaut miles runAvg speedWind from/ knotsBaromVisibWave heightAir tempDewpointWater temp
2015-Jul-03 04:33N 25°34' W 080°01'1110.6
2015-Jul-03 03:33N 25°44' W 080°01'1110.9
2015-Jul-03 02:33N 25°55' W 080°01'1010.0
2015-Jul-03 01:33N 26°05' W 080°04'3 2.4
2015-Jul-03 00:25N 26°06' W 080°07'0 0.0
2015-Jul-02 23:25N 26°06' W 080°07'0 0.0
2015-Jul-02 22:28N 26°06' W 080°07'0 0.0
2015-Jul-02 21:28N 26°06' W 080°07'0 0.0
2015-Jul-02 20:28N 26°06' W 080°07'0 0.0
2015-Jul-02 19:31N 26°06' W 080°07'0 0.0
2015-Jul-02 18:31N 26°06' W 080°07'0 0.0
2015-Jul-02 17:31N 26°06' W 080°07'0 0.0
2015-Jul-02 16:31N 26°06' W 080°07'0 0.0
2015-Jul-02 15:31N 26°06' W 080°07'0 0.0
2015-Jul-02 14:19N 26°06' W 080°07'0 0.0
2015-Jul-02 13:31N 26°06' W 080°07'0 0.0
2015-Jul-02 12:22N 26°06' W 080°07'0 0.0
2015-Jul-02 11:22N 26°06' W 080°07'0 0.0
2015-Jul-02 10:22N 26°06' W 080°07'0 0.0
2015-Jul-02 09:25N 26°06' W 080°07'0 0.0
2015-Jul-02 08:28N 26°06' W 080°07'0 0.0
2015-Jul-02 07:28N 26°06' W 080°07'0 0.0
2015-Jul-02 06:28N 26°06' W 080°07'0 0.0
2015-Jul-02 05:31N 26°06' W 080°07'0 0.0
2015-Jul-02 04:31N 26°06' W 080°07'0 0.0
2015-Jul-02 03:31N 26°06' W 080°07'0 0.0
2015-Jul-02 02:31N 26°06' W 080°07'0 0.0
2015-Jul-02 01:31N 26°06' W 080°07'0 0.0
2015-Jul-02 00:31N 26°06' W 080°07'0 0.0
2015-Jul-01 23:31N 26°06' W 080°07'0 0.0
2015-Jul-01 22:22N 26°06' W 080°07'0 0.0
2015-Jul-01 21:22N 26°06' W 080°07'0 0.0
2015-Jul-01 20:33N 26°06' W 080°07'3 3.4
2015-Jul-01 19:33N 26°07' W 080°04'1 0.8
2015-Jul-01 18:32N 26°07' W 080°05'0 0.0
2015-Jul-01 17:32N 26°07' W 080°05'0 0.1
2015-Jul-01 16:32N 26°07' W 080°05'0 0.1
2015-Jul-01 15:32N 26°07' W 080°05'8 8.5
2015-Jul-01 14:33N 25°60' W 080°00'1515.5
2015-Jul-01 13:33N 25°44' W 079°59'3315.5
2015-Jul-01 11:27N 25°12' W 080°02'59611.5
2015-Jun-29 07:33N 29°52' W 089°55'11 9.5
2015-Jun-29 06:27N 29°55' W 090°07'  
Track history (hours):
 
Tides and Currents Weather Stations Pressure Air Temp Water Temp Dewpoint Dewpoint Depression Visibility Wind Speed Wind Dir Waves Ship Positions

Legend

Owner: Crowley Maritime, Seattle, WA. More information available from US FCC via Universal Licensing System and Coast Guard Vessel Documentation Center.

Last reported at 2015-Jul-03 04:33 UTC. Time now 2015-Jul-04 18:57 UTC.
Position N 25°34' W 080°01'.

Length 212 m; draft 11.6 m.

Type: Towing. MMSI: 366709000.

Date/timePositionNaut miles runAvg speedWind from/ knotsBaromVisibWave heightAir tempDewpointWater temp
2015-Jul-03 04:33N 25°34' W 080°01'1110.6
2015-Jul-03 03:33N 25°44' W 080°01'1110.9
2015-Jul-03 02:33N 25°55' W 080°01'1010.0
2015-Jul-03 01:33N 26°05' W 080°04'3 2.4
2015-Jul-03 00:25N 26°06' W 080°07'0 0.0
2015-Jul-02 23:25N 26°06' W 080°07'0 0.0
2015-Jul-02 22:28N 26°06' W 080°07'0 0.0
2015-Jul-02 21:28N 26°06' W 080°07'0 0.0
2015-Jul-02 20:28N 26°06' W 080°07'0 0.0
2015-Jul-02 19:31N 26°06' W 080°07'0 0.0
2015-Jul-02 18:31N 26°06' W 080°07'0 0.0
2015-Jul-02 17:31N 26°06' W 080°07'0 0.0
2015-Jul-02 16:31N 26°06' W 080°07'0 0.0
2015-Jul-02 15:31N 26°06' W 080°07'0 0.0
2015-Jul-02 14:19N 26°06' W 080°07'0 0.0
2015-Jul-02 13:31N 26°06' W 080°07'0 0.0
2015-Jul-02 12:22N 26°06' W 080°07'0 0.0
2015-Jul-02 11:22N 26°06' W 080°07'0 0.0
2015-Jul-02 10:22N 26°06' W 080°07'0 0.0
2015-Jul-02 09:25N 26°06' W 080°07'0 0.0
2015-Jul-02 08:28N 26°06' W 080°07'0 0.0
2015-Jul-02 07:28N 26°06' W 080°07'0 0.0
2015-Jul-02 06:28N 26°06' W 080°07'0 0.0
2015-Jul-02 05:31N 26°06' W 080°07'0 0.0
2015-Jul-02 04:31N 26°06' W 080°07'0 0.0
2015-Jul-02 03:31N 26°06' W 080°07'0 0.0
2015-Jul-02 02:31N 26°06' W 080°07'0 0.0
2015-Jul-02 01:31N 26°06' W 080°07'0 0.0
2015-Jul-02 00:31N 26°06' W 080°07'0 0.0
2015-Jul-01 23:31N 26°06' W 080°07'0 0.0
2015-Jul-01 22:22N 26°06' W 080°07'0 0.0
2015-Jul-01 21:22N 26°06' W 080°07'0 0.0
2015-Jul-01 20:33N 26°06' W 080°07'3 3.4
2015-Jul-01 19:33N 26°07' W 080°04'1 0.8
2015-Jul-01 18:32N 26°07' W 080°05'0 0.0
2015-Jul-01 17:32N 26°07' W 080°05'0 0.1
2015-Jul-01 16:32N 26°07' W 080°05'0 0.1
2015-Jul-01 15:32N 26°07' W 080°05'8 8.5
2015-Jul-01 14:33N 25°60' W 080°00'1515.5
2015-Jul-01 13:33N 25°44' W 079°59'3315.5
2015-Jul-01 11:27N 25°12' W 080°02'59611.5
2015-Jun-29 07:33N 29°52' W 089°55'11 9.5
2015-Jun-29 06:27N 29°55' W 090°07'  

Dump ship's entire track history